sensor_id;sensor_type;location;lat;lon;timestamp;P1;durP1;ratioP1;P2;durP2;ratioP2
59734;SDS011;64362;45.620;4.920;2024-01-25T00:00:23;2.67;;;2.15;;
59734;SDS011;64362;45.620;4.920;2024-01-25T00:02:49;4.40;;;2.30;;
59734;SDS011;64362;45.620;4.920;2024-01-25T00:05:14;4.07;;;2.35;;
59734;SDS011;64362;45.620;4.920;2024-01-25T00:07:46;4.00;;;2.50;;
59734;SDS011;64362;45.620;4.920;2024-01-25T00:10:15;4.40;;;2.10;;
59734;SDS011;64362;45.620;4.920;2024-01-25T00:12:42;4.60;;;2.10;;
59734;SDS011;64362;45.620;4.920;2024-01-25T00:15:08;4.70;;;2.60;;
59734;SDS011;64362;45.620;4.920;2024-01-25T00:17:34;3.05;;;2.17;;
59734;SDS011;64362;45.620;4.920;2024-01-25T00:20:00;3.15;;;2.25;;
59734;SDS011;64362;45.620;4.920;2024-01-25T00:22:25;3.58;;;2.33;;
59734;SDS011;64362;45.620;4.920;2024-01-25T00:24:51;3.97;;;1.75;;
59734;SDS011;64362;45.620;4.920;2024-01-25T00:27:16;3.58;;;2.53;;
59734;SDS011;64362;45.620;4.920;2024-01-25T00:29:42;3.60;;;2.22;;
59734;SDS011;64362;45.620;4.920;2024-01-25T00:32:07;3.50;;;2.45;;
59734;SDS011;64362;45.620;4.920;2024-01-25T00:34:33;3.47;;;2.33;;
59734;SDS011;64362;45.620;4.920;2024-01-25T00:36:59;3.88;;;2.25;;
59734;SDS011;64362;45.620;4.920;2024-01-25T00:39:24;3.85;;;2.47;;
59734;SDS011;64362;45.620;4.920;2024-01-25T00:41:51;3.33;;;2.03;;
59734;SDS011;64362;45.620;4.920;2024-01-25T00:44:17;4.53;;;2.67;;
59734;SDS011;64362;45.620;4.920;2024-01-25T00:46:43;5.05;;;2.47;;
59734;SDS011;64362;45.620;4.920;2024-01-25T00:49:13;3.70;;;2.58;;
59734;SDS011;64362;45.620;4.920;2024-01-25T00:51:39;4.60;;;2.50;;
59734;SDS011;64362;45.620;4.920;2024-01-25T00:54:07;3.38;;;2.20;;
59734;SDS011;64362;45.620;4.920;2024-01-25T00:56:32;3.83;;;2.30;;
59734;SDS011;64362;45.620;4.920;2024-01-25T00:58:58;3.22;;;2.22;;
59734;SDS011;64362;45.620;4.920;2024-01-25T01:01:24;3.60;;;2.35;;
59734;SDS011;64362;45.620;4.920;2024-01-25T01:03:50;3.67;;;2.30;;
59734;SDS011;64362;45.620;4.920;2024-01-25T01:06:20;3.47;;;2.10;;
59734;SDS011;64362;45.620;4.920;2024-01-25T01:08:46;3.63;;;2.30;;
59734;SDS011;64362;45.620;4.920;2024-01-25T01:11:12;3.20;;;2.40;;
59734;SDS011;64362;45.620;4.920;2024-01-25T01:13:37;3.13;;;1.92;;
59734;SDS011;64362;45.620;4.920;2024-01-25T01:16:03;4.22;;;2.50;;
59734;SDS011;64362;45.620;4.920;2024-01-25T01:18:28;3.90;;;2.53;;
59734;SDS011;64362;45.620;4.920;2024-01-25T01:20:54;3.53;;;2.30;;
59734;SDS011;64362;45.620;4.920;2024-01-25T01:23:20;3.17;;;2.17;;
59734;SDS011;64362;45.620;4.920;2024-01-25T01:25:45;3.95;;;2.25;;
59734;SDS011;64362;45.620;4.920;2024-01-25T01:28:11;3.50;;;2.20;;
59734;SDS011;64362;45.620;4.920;2024-01-25T01:30:36;3.33;;;2.13;;
59734;SDS011;64362;45.620;4.920;2024-01-25T01:33:02;3.33;;;2.33;;
59734;SDS011;64362;45.620;4.920;2024-01-25T01:35:27;3.72;;;2.28;;
59734;SDS011;64362;45.620;4.920;2024-01-25T01:37:53;3.92;;;2.47;;
59734;SDS011;64362;45.620;4.920;2024-01-25T01:40:18;3.80;;;1.90;;
59734;SDS011;64362;45.620;4.920;2024-01-25T01:42:44;3.50;;;2.03;;
59734;SDS011;64362;45.620;4.920;2024-01-25T01:45:10;3.63;;;2.10;;
59734;SDS011;64362;45.620;4.920;2024-01-25T01:47:36;3.85;;;2.38;;
59734;SDS011;64362;45.620;4.920;2024-01-25T01:50:02;3.45;;;2.35;;
59734;SDS011;64362;45.620;4.920;2024-01-25T01:52:30;3.53;;;2.20;;
59734;SDS011;64362;45.620;4.920;2024-01-25T01:54:55;4.15;;;2.45;;
59734;SDS011;64362;45.620;4.920;2024-01-25T01:57:21;3.33;;;2.08;;
59734;SDS011;64362;45.620;4.920;2024-01-25T01:59:47;3.67;;;2.22;;
59734;SDS011;64362;45.620;4.920;2024-01-25T02:02:14;3.53;;;2.05;;
59734;SDS011;64362;45.620;4.920;2024-01-25T02:04:39;3.60;;;1.98;;
59734;SDS011;64362;45.620;4.920;2024-01-25T02:07:05;3.20;;;2.28;;
59734;SDS011;64362;45.620;4.920;2024-01-25T02:09:31;2.75;;;1.73;;
59734;SDS011;64362;45.620;4.920;2024-01-25T02:12:00;2.80;;;1.90;;
59734;SDS011;64362;45.620;4.920;2024-01-25T02:14:26;3.20;;;1.77;;
59734;SDS011;64362;45.620;4.920;2024-01-25T02:16:52;4.03;;;1.90;;
59734;SDS011;64362;45.620;4.920;2024-01-25T02:19:17;3.25;;;1.85;;
59734;SDS011;64362;45.620;4.920;2024-01-25T02:21:42;2.80;;;1.77;;
59734;SDS011;64362;45.620;4.920;2024-01-25T02:24:08;3.78;;;2.03;;
59734;SDS011;64362;45.620;4.920;2024-01-25T02:26:34;2.55;;;1.67;;
59734;SDS011;64362;45.620;4.920;2024-01-25T02:29:00;3.75;;;2.25;;
59734;SDS011;64362;45.620;4.920;2024-01-25T02:31:25;2.75;;;2.05;;
59734;SDS011;64362;45.620;4.920;2024-01-25T02:33:51;3.13;;;2.05;;
59734;SDS011;64362;45.620;4.920;2024-01-25T02:36:16;2.35;;;1.70;;
59734;SDS011;64362;45.620;4.920;2024-01-25T02:38:42;3.00;;;1.83;;
59734;SDS011;64362;45.620;4.920;2024-01-25T02:41:07;4.10;;;2.00;;
59734;SDS011;64362;45.620;4.920;2024-01-25T02:43:33;2.97;;;1.65;;
59734;SDS011;64362;45.620;4.920;2024-01-25T02:45:58;3.30;;;2.00;;
59734;SDS011;64362;45.620;4.920;2024-01-25T02:48:24;2.50;;;1.60;;
59734;SDS011;64362;45.620;4.920;2024-01-25T02:50:49;3.42;;;2.05;;
59734;SDS011;64362;45.620;4.920;2024-01-25T02:53:14;3.33;;;2.05;;
59734;SDS011;64362;45.620;4.920;2024-01-25T02:55:40;3.67;;;1.70;;
59734;SDS011;64362;45.620;4.920;2024-01-25T02:58:05;2.92;;;1.90;;
59734;SDS011;64362;45.620;4.920;2024-01-25T03:00:31;3.45;;;1.75;;
59734;SDS011;64362;45.620;4.920;2024-01-25T03:02:56;2.65;;;1.73;;
59734;SDS011;64362;45.620;4.920;2024-01-25T03:05:22;2.78;;;1.63;;
59734;SDS011;64362;45.620;4.920;2024-01-25T03:07:47;2.53;;;1.90;;
59734;SDS011;64362;45.620;4.920;2024-01-25T03:10:13;2.92;;;1.92;;
59734;SDS011;64362;45.620;4.920;2024-01-25T03:12:38;3.35;;;1.90;;
59734;SDS011;64362;45.620;4.920;2024-01-25T03:15:04;3.20;;;1.80;;
59734;SDS011;64362;45.620;4.920;2024-01-25T03:17:30;4.05;;;1.92;;
59734;SDS011;64362;45.620;4.920;2024-01-25T03:19:55;2.22;;;1.50;;
59734;SDS011;64362;45.620;4.920;2024-01-25T03:22:21;2.40;;;1.67;;
59734;SDS011;64362;45.620;4.920;2024-01-25T03:24:47;3.30;;;1.55;;
59734;SDS011;64362;45.620;4.920;2024-01-25T03:27:13;2.63;;;1.80;;
59734;SDS011;64362;45.620;4.920;2024-01-25T03:29:42;3.78;;;2.17;;
59734;SDS011;64362;45.620;4.920;2024-01-25T03:32:09;3.70;;;1.80;;
59734;SDS011;64362;45.620;4.920;2024-01-25T03:34:35;3.17;;;1.80;;
59734;SDS011;64362;45.620;4.920;2024-01-25T03:37:00;3.40;;;1.80;;
59734;SDS011;64362;45.620;4.920;2024-01-25T03:39:25;3.42;;;2.00;;
59734;SDS011;64362;45.620;4.920;2024-01-25T03:41:51;3.08;;;2.05;;
59734;SDS011;64362;45.620;4.920;2024-01-25T03:44:16;2.47;;;1.67;;
59734;SDS011;64362;45.620;4.920;2024-01-25T03:46:42;3.30;;;1.67;;
59734;SDS011;64362;45.620;4.920;2024-01-25T03:49:08;2.70;;;1.75;;
59734;SDS011;64362;45.620;4.920;2024-01-25T03:51:34;3.10;;;1.50;;
59734;SDS011;64362;45.620;4.920;2024-01-25T03:53:59;3.40;;;2.03;;
59734;SDS011;64362;45.620;4.920;2024-01-25T03:56:24;3.20;;;1.75;;
59734;SDS011;64362;45.620;4.920;2024-01-25T03:58:52;2.75;;;1.80;;
59734;SDS011;64362;45.620;4.920;2024-01-25T04:01:17;3.08;;;1.80;;
59734;SDS011;64362;45.620;4.920;2024-01-25T04:03:43;2.70;;;1.90;;
59734;SDS011;64362;45.620;4.920;2024-01-25T04:06:08;2.70;;;1.90;;
59734;SDS011;64362;45.620;4.920;2024-01-25T04:08:33;2.55;;;1.75;;
59734;SDS011;64362;45.620;4.920;2024-01-25T04:10:59;2.45;;;1.52;;
59734;SDS011;64362;45.620;4.920;2024-01-25T04:13:24;3.33;;;2.08;;
59734;SDS011;64362;45.620;4.920;2024-01-25T04:15:50;2.50;;;1.92;;
59734;SDS011;64362;45.620;4.920;2024-01-25T04:18:16;2.78;;;1.88;;
59734;SDS011;64362;45.620;4.920;2024-01-25T04:20:42;2.90;;;1.73;;
59734;SDS011;64362;45.620;4.920;2024-01-25T04:23:08;3.10;;;2.10;;
59734;SDS011;64362;45.620;4.920;2024-01-25T04:25:34;2.83;;;1.95;;
59734;SDS011;64362;45.620;4.920;2024-01-25T04:27:59;2.53;;;1.80;;
59734;SDS011;64362;45.620;4.920;2024-01-25T04:30:25;3.20;;;2.28;;
59734;SDS011;64362;45.620;4.920;2024-01-25T04:32:51;2.55;;;1.98;;
59734;SDS011;64362;45.620;4.920;2024-01-25T04:35:16;2.80;;;1.83;;
59734;SDS011;64362;45.620;4.920;2024-01-25T04:37:42;3.55;;;2.38;;
59734;SDS011;64362;45.620;4.920;2024-01-25T04:40:07;3.80;;;2.40;;
59734;SDS011;64362;45.620;4.920;2024-01-25T04:42:33;3.55;;;2.25;;
59734;SDS011;64362;45.620;4.920;2024-01-25T04:44:59;3.42;;;2.22;;
59734;SDS011;64362;45.620;4.920;2024-01-25T04:47:24;2.60;;;1.98;;
59734;SDS011;64362;45.620;4.920;2024-01-25T04:49:50;3.30;;;1.85;;
59734;SDS011;64362;45.620;4.920;2024-01-25T04:52:17;2.80;;;2.22;;
59734;SDS011;64362;45.620;4.920;2024-01-25T04:54:43;2.90;;;2.20;;
59734;SDS011;64362;45.620;4.920;2024-01-25T04:57:10;3.30;;;2.17;;
59734;SDS011;64362;45.620;4.920;2024-01-25T04:59:35;3.05;;;2.10;;
59734;SDS011;64362;45.620;4.920;2024-01-25T05:02:01;3.78;;;2.20;;
59734;SDS011;64362;45.620;4.920;2024-01-25T05:04:27;3.35;;;2.17;;
59734;SDS011;64362;45.620;4.920;2024-01-25T05:06:54;2.67;;;1.85;;
59734;SDS011;64362;45.620;4.920;2024-01-25T05:09:20;2.78;;;2.10;;
59734;SDS011;64362;45.620;4.920;2024-01-25T05:11:45;2.92;;;2.20;;
59734;SDS011;64362;45.620;4.920;2024-01-25T05:14:11;4.30;;;2.17;;
59734;SDS011;64362;45.620;4.920;2024-01-25T05:16:36;4.35;;;2.17;;
59734;SDS011;64362;45.620;4.920;2024-01-25T05:19:02;2.65;;;2.05;;
59734;SDS011;64362;45.620;4.920;2024-01-25T05:21:27;2.85;;;1.92;;
59734;SDS011;64362;45.620;4.920;2024-01-25T05:23:53;3.13;;;2.20;;
59734;SDS011;64362;45.620;4.920;2024-01-25T05:26:18;3.45;;;2.22;;
59734;SDS011;64362;45.620;4.920;2024-01-25T05:28:44;2.88;;;2.00;;
59734;SDS011;64362;45.620;4.920;2024-01-25T05:31:09;2.50;;;1.80;;
59734;SDS011;64362;45.620;4.920;2024-01-25T05:33:41;2.58;;;2.00;;
59734;SDS011;64362;45.620;4.920;2024-01-25T05:36:07;3.88;;;2.45;;
59734;SDS011;64362;45.620;4.920;2024-01-25T05:38:33;2.80;;;2.20;;
59734;SDS011;64362;45.620;4.920;2024-01-25T05:40:59;2.75;;;1.73;;
59734;SDS011;64362;45.620;4.920;2024-01-25T05:43:24;2.92;;;2.20;;
59734;SDS011;64362;45.620;4.920;2024-01-25T05:45:50;2.38;;;1.95;;
59734;SDS011;64362;45.620;4.920;2024-01-25T05:48:15;3.10;;;2.17;;
59734;SDS011;64362;45.620;4.920;2024-01-25T05:50:41;3.22;;;2.55;;
59734;SDS011;64362;45.620;4.920;2024-01-25T05:53:07;2.55;;;1.80;;
59734;SDS011;64362;45.620;4.920;2024-01-25T05:55:32;2.80;;;2.10;;
59734;SDS011;64362;45.620;4.920;2024-01-25T05:57:57;2.85;;;2.05;;
59734;SDS011;64362;45.620;4.920;2024-01-25T06:00:23;3.25;;;2.10;;
59734;SDS011;64362;45.620;4.920;2024-01-25T06:02:48;2.58;;;1.98;;
59734;SDS011;64362;45.620;4.920;2024-01-25T06:05:14;2.92;;;2.05;;
59734;SDS011;64362;45.620;4.920;2024-01-25T06:07:40;3.10;;;2.13;;
59734;SDS011;64362;45.620;4.920;2024-01-25T06:10:06;3.88;;;2.05;;
59734;SDS011;64362;45.620;4.920;2024-01-25T06:12:32;2.85;;;2.00;;
59734;SDS011;64362;45.620;4.920;2024-01-25T06:14:58;3.05;;;2.10;;
59734;SDS011;64362;45.620;4.920;2024-01-25T06:17:23;3.30;;;2.30;;
59734;SDS011;64362;45.620;4.920;2024-01-25T06:19:49;3.22;;;1.98;;
59734;SDS011;64362;45.620;4.920;2024-01-25T06:22:14;3.50;;;2.20;;
59734;SDS011;64362;45.620;4.920;2024-01-25T06:24:42;2.83;;;2.10;;
59734;SDS011;64362;45.620;4.920;2024-01-25T06:27:11;3.25;;;1.83;;
59734;SDS011;64362;45.620;4.920;2024-01-25T06:29:36;2.47;;;1.90;;
59734;SDS011;64362;45.620;4.920;2024-01-25T06:32:02;3.10;;;2.15;;
59734;SDS011;64362;45.620;4.920;2024-01-25T06:34:28;4.18;;;2.00;;
59734;SDS011;64362;45.620;4.920;2024-01-25T06:36:53;3.75;;;1.70;;
59734;SDS011;64362;45.620;4.920;2024-01-25T06:39:19;2.83;;;2.08;;
59734;SDS011;64362;45.620;4.920;2024-01-25T06:41:44;4.97;;;1.90;;
59734;SDS011;64362;45.620;4.920;2024-01-25T06:44:10;2.53;;;1.90;;
59734;SDS011;64362;45.620;4.920;2024-01-25T06:46:36;4.60;;;1.90;;
59734;SDS011;64362;45.620;4.920;2024-01-25T06:49:01;3.92;;;1.88;;
59734;SDS011;64362;45.620;4.920;2024-01-25T06:51:28;4.35;;;2.28;;
59734;SDS011;64362;45.620;4.920;2024-01-25T06:53:53;2.88;;;1.80;;
59734;SDS011;64362;45.620;4.920;2024-01-25T06:56:19;4.28;;;1.90;;
59734;SDS011;64362;45.620;4.920;2024-01-25T06:58:45;4.25;;;2.40;;
59734;SDS011;64362;45.620;4.920;2024-01-25T07:01:10;3.55;;;1.83;;
59734;SDS011;64362;45.620;4.920;2024-01-25T07:03:35;4.03;;;2.95;;
59734;SDS011;64362;45.620;4.920;2024-01-25T07:06:01;5.68;;;2.10;;
59734;SDS011;64362;45.620;4.920;2024-01-25T07:08:27;4.32;;;2.30;;
59734;SDS011;64362;45.620;4.920;2024-01-25T07:10:52;7.63;;;2.30;;
59734;SDS011;64362;45.620;4.920;2024-01-25T07:13:18;3.67;;;2.10;;
59734;SDS011;64362;45.620;4.920;2024-01-25T07:15:46;3.72;;;2.20;;
59734;SDS011;64362;45.620;4.920;2024-01-25T07:18:11;7.32;;;2.53;;
59734;SDS011;64362;45.620;4.920;2024-01-25T07:20:37;6.30;;;2.80;;
59734;SDS011;64362;45.620;4.920;2024-01-25T07:23:02;6.28;;;2.78;;
59734;SDS011;64362;45.620;4.920;2024-01-25T07:25:28;6.18;;;2.88;;
59734;SDS011;64362;45.620;4.920;2024-01-25T07:27:53;4.30;;;2.47;;
59734;SDS011;64362;45.620;4.920;2024-01-25T07:30:19;5.47;;;2.78;;
59734;SDS011;64362;45.620;4.920;2024-01-25T07:32:44;3.95;;;2.78;;
59734;SDS011;64362;45.620;4.920;2024-01-25T07:35:11;4.07;;;2.33;;
59734;SDS011;64362;45.620;4.920;2024-01-25T07:37:38;4.63;;;2.10;;
59734;SDS011;64362;45.620;4.920;2024-01-25T07:40:05;7.00;;;2.33;;
59734;SDS011;64362;45.620;4.920;2024-01-25T07:42:32;5.93;;;1.90;;
59734;SDS011;64362;45.620;4.920;2024-01-25T07:44:57;5.05;;;1.70;;
59734;SDS011;64362;45.620;4.920;2024-01-25T07:47:23;4.03;;;1.95;;
59734;SDS011;64362;45.620;4.920;2024-01-25T07:49:52;4.53;;;2.00;;
59734;SDS011;64362;45.620;4.920;2024-01-25T07:52:18;5.93;;;2.00;;
59734;SDS011;64362;45.620;4.920;2024-01-25T07:54:43;3.45;;;1.90;;
59734;SDS011;64362;45.620;4.920;2024-01-25T07:57:10;3.75;;;2.05;;
59734;SDS011;64362;45.620;4.920;2024-01-25T07:59:35;2.88;;;1.98;;
59734;SDS011;64362;45.620;4.920;2024-01-25T08:02:01;4.63;;;1.90;;
59734;SDS011;64362;45.620;4.920;2024-01-25T08:04:26;4.80;;;1.75;;
59734;SDS011;64362;45.620;4.920;2024-01-25T08:06:52;2.78;;;1.55;;
59734;SDS011;64362;45.620;4.920;2024-01-25T08:09:17;3.30;;;1.60;;
59734;SDS011;64362;45.620;4.920;2024-01-25T08:11:44;4.30;;;1.73;;
59734;SDS011;64362;45.620;4.920;2024-01-25T08:14:09;3.58;;;1.80;;
59734;SDS011;64362;45.620;4.920;2024-01-25T08:16:36;2.70;;;1.80;;
59734;SDS011;64362;45.620;4.920;2024-01-25T08:19:02;2.55;;;1.80;;
59734;SDS011;64362;45.620;4.920;2024-01-25T08:21:28;4.32;;;1.80;;
59734;SDS011;64362;45.620;4.920;2024-01-25T08:23:53;3.78;;;1.73;;
59734;SDS011;64362;45.620;4.920;2024-01-25T08:26:19;2.40;;;1.65;;
59734;SDS011;64362;45.620;4.920;2024-01-25T08:28:44;3.58;;;1.80;;
59734;SDS011;64362;45.620;4.920;2024-01-25T08:31:11;3.90;;;1.70;;
59734;SDS011;64362;45.620;4.920;2024-01-25T08:33:38;3.45;;;1.90;;
59734;SDS011;64362;45.620;4.920;2024-01-25T08:36:07;2.97;;;1.70;;
59734;SDS011;64362;45.620;4.920;2024-01-25T08:38:32;3.75;;;1.75;;
59734;SDS011;64362;45.620;4.920;2024-01-25T08:40:58;3.05;;;1.65;;
59734;SDS011;64362;45.620;4.920;2024-01-25T08:43:23;3.05;;;1.42;;
59734;SDS011;64362;45.620;4.920;2024-01-25T08:45:49;2.40;;;1.77;;
59734;SDS011;64362;45.620;4.920;2024-01-25T08:48:14;4.15;;;1.63;;
59734;SDS011;64362;45.620;4.920;2024-01-25T08:50:41;2.53;;;1.30;;
59734;SDS011;64362;45.620;4.920;2024-01-25T08:53:06;2.65;;;1.30;;
59734;SDS011;64362;45.620;4.920;2024-01-25T08:55:32;2.65;;;1.40;;
59734;SDS011;64362;45.620;4.920;2024-01-25T08:57:57;4.55;;;1.60;;
59734;SDS011;64362;45.620;4.920;2024-01-25T09:00:23;3.55;;;1.40;;
59734;SDS011;64362;45.620;4.920;2024-01-25T09:02:48;2.88;;;1.50;;
59734;SDS011;64362;45.620;4.920;2024-01-25T09:05:14;3.28;;;1.40;;
59734;SDS011;64362;45.620;4.920;2024-01-25T09:07:39;2.13;;;1.42;;
59734;SDS011;64362;45.620;4.920;2024-01-25T09:10:05;2.90;;;1.90;;
59734;SDS011;64362;45.620;4.920;2024-01-25T09:12:31;4.32;;;1.65;;
59734;SDS011;64362;45.620;4.920;2024-01-25T09:14:57;3.17;;;1.90;;
59734;SDS011;64362;45.620;4.920;2024-01-25T09:17:22;2.40;;;1.70;;
59734;SDS011;64362;45.620;4.920;2024-01-25T09:19:48;2.38;;;1.65;;
59734;SDS011;64362;45.620;4.920;2024-01-25T09:22:17;2.83;;;1.83;;
59734;SDS011;64362;45.620;4.920;2024-01-25T09:24:48;3.22;;;2.00;;
59734;SDS011;64362;45.620;4.920;2024-01-25T09:27:14;2.92;;;1.70;;
59734;SDS011;64362;45.620;4.920;2024-01-25T09:29:40;3.75;;;1.95;;
59734;SDS011;64362;45.620;4.920;2024-01-25T09:32:06;4.05;;;2.15;;
59734;SDS011;64362;45.620;4.920;2024-01-25T09:34:32;3.28;;;1.73;;
59734;SDS011;64362;45.620;4.920;2024-01-25T09:36:58;2.30;;;1.60;;
59734;SDS011;64362;45.620;4.920;2024-01-25T09:39:23;3.15;;;1.95;;
59734;SDS011;64362;45.620;4.920;2024-01-25T09:41:49;3.47;;;1.77;;
59734;SDS011;64362;45.620;4.920;2024-01-25T09:44:14;3.42;;;1.80;;
59734;SDS011;64362;45.620;4.920;2024-01-25T09:46:42;6.38;;;2.38;;
59734;SDS011;64362;45.620;4.920;2024-01-25T09:49:08;6.65;;;2.60;;
59734;SDS011;64362;45.620;4.920;2024-01-25T09:51:36;7.47;;;2.80;;
59734;SDS011;64362;45.620;4.920;2024-01-25T09:54:03;5.25;;;2.28;;
59734;SDS011;64362;45.620;4.920;2024-01-25T09:56:31;5.80;;;2.47;;
59734;SDS011;64362;45.620;4.920;2024-01-25T09:58:57;5.00;;;2.25;;
59734;SDS011;64362;45.620;4.920;2024-01-25T10:01:24;7.82;;;2.67;;
59734;SDS011;64362;45.620;4.920;2024-01-25T10:03:49;4.63;;;2.20;;
59734;SDS011;64362;45.620;4.920;2024-01-25T10:06:16;9.10;;;2.70;;
59734;SDS011;64362;45.620;4.920;2024-01-25T10:08:42;7.05;;;2.40;;
59734;SDS011;64362;45.620;4.920;2024-01-25T10:11:08;5.80;;;2.30;;
59734;SDS011;64362;45.620;4.920;2024-01-25T10:13:40;6.55;;;2.65;;
59734;SDS011;64362;45.620;4.920;2024-01-25T10:16:07;4.63;;;3.05;;
59734;SDS011;64362;45.620;4.920;2024-01-25T10:18:35;3.80;;;2.33;;
59734;SDS011;64362;45.620;4.920;2024-01-25T10:21:01;4.63;;;2.15;;
59734;SDS011;64362;45.620;4.920;2024-01-25T10:23:28;4.03;;;2.22;;
59734;SDS011;64362;45.620;4.920;2024-01-25T10:25:53;5.15;;;2.30;;
59734;SDS011;64362;45.620;4.920;2024-01-25T10:28:19;6.20;;;2.60;;
59734;SDS011;64362;45.620;4.920;2024-01-25T10:30:44;4.50;;;2.15;;
59734;SDS011;64362;45.620;4.920;2024-01-25T10:33:11;5.32;;;2.50;;
59734;SDS011;64362;45.620;4.920;2024-01-25T10:35:37;4.03;;;2.15;;
59734;SDS011;64362;45.620;4.920;2024-01-25T10:38:03;6.10;;;2.38;;
59734;SDS011;64362;45.620;4.920;2024-01-25T10:40:29;4.68;;;2.05;;
59734;SDS011;64362;45.620;4.920;2024-01-25T10:42:54;3.90;;;2.20;;
59734;SDS011;64362;45.620;4.920;2024-01-25T10:45:20;4.28;;;1.90;;
59734;SDS011;64362;45.620;4.920;2024-01-25T10:47:48;5.47;;;1.92;;
59734;SDS011;64362;45.620;4.920;2024-01-25T10:50:13;5.53;;;1.90;;
59734;SDS011;64362;45.620;4.920;2024-01-25T10:52:40;5.57;;;1.95;;
59734;SDS011;64362;45.620;4.920;2024-01-25T10:55:06;4.10;;;1.98;;
59734;SDS011;64362;45.620;4.920;2024-01-25T10:57:35;4.93;;;1.83;;
59734;SDS011;64362;45.620;4.920;2024-01-25T11:00:11;4.60;;;2.00;;
59734;SDS011;64362;45.620;4.920;2024-01-25T11:02:39;3.97;;;2.30;;
59734;SDS011;64362;45.620;4.920;2024-01-25T11:05:12;8.50;;;2.10;;
59734;SDS011;64362;45.620;4.920;2024-01-25T11:07:42;4.10;;;2.10;;
59734;SDS011;64362;45.620;4.920;2024-01-25T11:10:16;3.58;;;1.83;;
59734;SDS011;64362;45.620;4.920;2024-01-25T11:12:49;4.70;;;1.95;;
59734;SDS011;64362;45.620;4.920;2024-01-25T11:15:20;3.83;;;1.40;;
59734;SDS011;64362;45.620;4.920;2024-01-25T11:17:51;4.43;;;1.73;;
59734;SDS011;64362;45.620;4.920;2024-01-25T11:20:19;2.50;;;1.50;;
59734;SDS011;64362;45.620;4.920;2024-01-25T11:22:46;3.55;;;1.55;;
59734;SDS011;64362;45.620;4.920;2024-01-25T11:25:20;4.25;;;1.70;;
59734;SDS011;64362;45.620;4.920;2024-01-25T11:27:46;3.33;;;1.90;;
59734;SDS011;64362;45.620;4.920;2024-01-25T11:30:13;2.95;;;1.75;;
59734;SDS011;64362;45.620;4.920;2024-01-25T11:32:39;4.10;;;1.67;;
59734;SDS011;64362;45.620;4.920;2024-01-25T11:35:04;3.33;;;1.75;;
59734;SDS011;64362;45.620;4.920;2024-01-25T11:37:30;5.00;;;1.50;;
59734;SDS011;64362;45.620;4.920;2024-01-25T11:39:55;5.97;;;2.00;;
59734;SDS011;64362;45.620;4.920;2024-01-25T11:42:21;5.13;;;2.00;;
59734;SDS011;64362;45.620;4.920;2024-01-25T11:44:47;3.63;;;1.63;;
59734;SDS011;64362;45.620;4.920;2024-01-25T11:47:12;6.60;;;1.77;;
59734;SDS011;64362;45.620;4.920;2024-01-25T11:49:39;3.22;;;1.50;;
59734;SDS011;64362;45.620;4.920;2024-01-25T11:52:04;4.30;;;1.83;;
59734;SDS011;64362;45.620;4.920;2024-01-25T11:54:30;2.88;;;1.30;;
59734;SDS011;64362;45.620;4.920;2024-01-25T11:56:56;4.38;;;1.52;;
59734;SDS011;64362;45.620;4.920;2024-01-25T11:59:22;4.95;;;1.60;;
59734;SDS011;64362;45.620;4.920;2024-01-25T12:01:47;7.63;;;2.00;;
59734;SDS011;64362;45.620;4.920;2024-01-25T12:04:13;3.85;;;1.50;;
59734;SDS011;64362;45.620;4.920;2024-01-25T12:06:39;3.45;;;1.60;;
59734;SDS011;64362;45.620;4.920;2024-01-25T12:09:14;5.20;;;1.58;;
59734;SDS011;64362;45.620;4.920;2024-01-25T12:11:41;3.05;;;1.40;;
59734;SDS011;64362;45.620;4.920;2024-01-25T12:14:07;4.25;;;1.60;;
59734;SDS011;64362;45.620;4.920;2024-01-25T12:16:33;3.42;;;1.50;;
59734;SDS011;64362;45.620;4.920;2024-01-25T12:18:59;3.30;;;1.30;;
59734;SDS011;64362;45.620;4.920;2024-01-25T12:21:24;3.42;;;1.20;;
59734;SDS011;64362;45.620;4.920;2024-01-25T12:23:50;2.97;;;1.40;;
59734;SDS011;64362;45.620;4.920;2024-01-25T12:26:16;3.50;;;1.27;;
59734;SDS011;64362;45.620;4.920;2024-01-25T12:28:42;4.50;;;1.73;;
59734;SDS011;64362;45.620;4.920;2024-01-25T12:31:08;4.80;;;1.38;;
59734;SDS011;64362;45.620;4.920;2024-01-25T12:33:34;3.83;;;1.25;;
59734;SDS011;64362;45.620;4.920;2024-01-25T12:36:00;3.55;;;1.40;;
59734;SDS011;64362;45.620;4.920;2024-01-25T12:38:29;3.97;;;1.50;;
59734;SDS011;64362;45.620;4.920;2024-01-25T12:40:57;4.93;;;1.30;;
59734;SDS011;64362;45.620;4.920;2024-01-25T12:43:22;4.43;;;1.38;;
59734;SDS011;64362;45.620;4.920;2024-01-25T12:45:48;3.75;;;1.48;;
59734;SDS011;64362;45.620;4.920;2024-01-25T12:48:14;3.25;;;1.20;;
59734;SDS011;64362;45.620;4.920;2024-01-25T12:50:39;3.85;;;1.40;;
59734;SDS011;64362;45.620;4.920;2024-01-25T12:53:05;2.55;;;1.35;;
59734;SDS011;64362;45.620;4.920;2024-01-25T12:55:31;2.65;;;1.40;;
59734;SDS011;64362;45.620;4.920;2024-01-25T12:57:58;3.88;;;1.80;;
59734;SDS011;64362;45.620;4.920;2024-01-25T13:00:24;3.13;;;1.33;;
59734;SDS011;64362;45.620;4.920;2024-01-25T13:02:49;2.72;;;1.45;;
59734;SDS011;64362;45.620;4.920;2024-01-25T13:05:15;3.90;;;1.20;;
59734;SDS011;64362;45.620;4.920;2024-01-25T13:07:41;3.08;;;1.42;;
59734;SDS011;64362;45.620;4.920;2024-01-25T13:10:08;2.33;;;1.23;;
59734;SDS011;64362;45.620;4.920;2024-01-25T13:12:34;3.22;;;1.02;;
59734;SDS011;64362;45.620;4.920;2024-01-25T13:15:00;5.60;;;1.23;;
59734;SDS011;64362;45.620;4.920;2024-01-25T13:17:25;2.83;;;1.00;;
59734;SDS011;64362;45.620;4.920;2024-01-25T13:19:52;1.73;;;1.00;;
59734;SDS011;64362;45.620;4.920;2024-01-25T13:22:18;1.92;;;1.15;;
59734;SDS011;64362;45.620;4.920;2024-01-25T13:24:46;2.50;;;0.98;;
59734;SDS011;64362;45.620;4.920;2024-01-25T13:27:11;3.72;;;1.00;;
59734;SDS011;64362;45.620;4.920;2024-01-25T13:29:37;1.83;;;0.93;;
59734;SDS011;64362;45.620;4.920;2024-01-25T13:32:02;1.45;;;1.00;;
59734;SDS011;64362;45.620;4.920;2024-01-25T13:34:28;3.40;;;0.90;;
59734;SDS011;64362;45.620;4.920;2024-01-25T13:36:53;2.50;;;1.00;;
59734;SDS011;64362;45.620;4.920;2024-01-25T13:39:19;2.55;;;0.95;;
59734;SDS011;64362;45.620;4.920;2024-01-25T13:41:44;2.10;;;0.95;;
59734;SDS011;64362;45.620;4.920;2024-01-25T13:44:13;2.45;;;1.00;;
59734;SDS011;64362;45.620;4.920;2024-01-25T13:46:39;1.60;;;1.08;;
59734;SDS011;64362;45.620;4.920;2024-01-25T13:49:04;2.15;;;1.00;;
59734;SDS011;64362;45.620;4.920;2024-01-25T13:51:30;1.75;;;1.08;;
59734;SDS011;64362;45.620;4.920;2024-01-25T13:53:55;1.48;;;1.00;;
59734;SDS011;64362;45.620;4.920;2024-01-25T13:56:21;2.10;;;0.93;;
59734;SDS011;64362;45.620;4.920;2024-01-25T13:58:46;2.33;;;0.88;;
59734;SDS011;64362;45.620;4.920;2024-01-25T14:01:12;1.60;;;0.73;;
59734;SDS011;64362;45.620;4.920;2024-01-25T14:03:37;2.13;;;0.80;;
59734;SDS011;64362;45.620;4.920;2024-01-25T14:06:03;1.08;;;0.80;;
59734;SDS011;64362;45.620;4.920;2024-01-25T14:08:30;2.35;;;1.00;;
59734;SDS011;64362;45.620;4.920;2024-01-25T14:10:57;1.23;;;0.63;;
59734;SDS011;64362;45.620;4.920;2024-01-25T14:13:22;1.55;;;0.82;;
59734;SDS011;64362;45.620;4.920;2024-01-25T14:15:48;1.20;;;0.70;;
59734;SDS011;64362;45.620;4.920;2024-01-25T14:18:13;1.60;;;0.80;;
59734;SDS011;64362;45.620;4.920;2024-01-25T14:20:39;1.45;;;0.80;;
59734;SDS011;64362;45.620;4.920;2024-01-25T14:23:05;1.98;;;0.70;;
59734;SDS011;64362;45.620;4.920;2024-01-25T14:25:30;1.45;;;0.80;;
59734;SDS011;64362;45.620;4.920;2024-01-25T14:27:56;1.48;;;0.60;;
59734;SDS011;64362;45.620;4.920;2024-01-25T14:30:21;0.95;;;0.57;;
59734;SDS011;64362;45.620;4.920;2024-01-25T14:32:47;1.50;;;0.80;;
59734;SDS011;64362;45.620;4.920;2024-01-25T14:35:12;1.70;;;0.90;;
59734;SDS011;64362;45.620;4.920;2024-01-25T14:37:38;1.85;;;0.70;;
59734;SDS011;64362;45.620;4.920;2024-01-25T14:40:03;1.52;;;0.80;;